createdAt,value
2022-10-26T00:02:05.801Z,101257.53
2022-10-26T00:04:35.644Z,101239.19
2022-10-26T00:07:02.434Z,101274.78
2022-10-26T00:09:28.861Z,101290.81
2022-10-26T00:11:56.981Z,101280.91
2022-10-26T00:14:24.230Z,101239.56
2022-10-26T00:16:50.998Z,101252.53
2022-10-26T00:19:17.634Z,101297.81
2022-10-26T00:21:44.623Z,101298.22
2022-10-26T00:24:14.700Z,101291.38
2022-10-26T00:26:41.415Z,101274.50
2022-10-26T00:29:08.421Z,101295.34
2022-10-26T00:31:35.176Z,101287.97
2022-10-26T00:34:01.513Z,101308.34
2022-10-26T00:36:28.298Z,101278.09
2022-10-26T00:38:55.425Z,101315.56
2022-10-26T00:41:27.217Z,101290.31
2022-10-26T00:43:54.431Z,101255.91
2022-10-26T00:46:36.042Z,101283.13
2022-10-26T00:49:10.648Z,101295.84
2022-10-26T00:51:42.912Z,101304.63
2022-10-26T00:54:13.651Z,101316.09
2022-10-26T00:56:41.242Z,101292.97
2022-10-26T00:59:11.265Z,101297.78
2022-10-26T01:01:40.980Z,101302.50
2022-10-26T01:04:07.413Z,101302.28
2022-10-26T01:06:36.652Z,101295.63
2022-10-26T01:09:03.877Z,101301.91
2022-10-26T01:11:30.579Z,101285.78
2022-10-26T01:14:02.725Z,101306.97
2022-10-26T01:19:47.798Z,101287.63
2022-10-26T01:22:40.450Z,101311.66
2022-10-26T01:25:28.759Z,101297.53
2022-10-26T01:27:56.256Z,101279.34
2022-10-26T01:30:41.379Z,101269.16
2022-10-26T01:33:29.690Z,101291.69
2022-10-26T01:36:14.292Z,101272.06
2022-10-26T01:39:09.735Z,101279.50
2022-10-26T01:41:44.091Z,101219.56
2022-10-26T01:44:18.980Z,101248.78
2022-10-26T01:46:51.444Z,101252.09
2022-10-26T01:49:22.780Z,101267.09
2022-10-26T01:51:49.735Z,101262.25
2022-10-26T01:54:16.587Z,101257.06
2022-10-26T01:56:48.086Z,101218.44
2022-10-26T01:59:26.928Z,101225.56
2022-10-26T02:02:26.824Z,101261.78
2022-10-26T02:05:19.951Z,101253.63
2022-10-26T02:08:12.487Z,101252.22
2022-10-26T02:10:47.882Z,101277.63
2022-10-26T02:14:00.916Z,101271.53
2022-10-26T02:16:58.165Z,101274.19
2022-10-26T02:19:36.427Z,101238.91
2022-10-26T02:22:21.637Z,101264.31
2022-10-26T02:24:51.314Z,101222.13
2022-10-26T02:27:23.927Z,101255.53
2022-10-26T02:29:54.412Z,101231.59
2022-10-26T02:32:23.571Z,101231.06
2022-10-26T02:34:52.507Z,101244.25
2022-10-26T02:37:21.720Z,101249.31
2022-10-26T02:39:51.666Z,101245.03
2022-10-26T02:42:19.439Z,101266.50
2022-10-26T02:44:54.395Z,101256.13
2022-10-26T02:47:21.401Z,101264.63
2022-10-26T02:49:47.980Z,101261.53
2022-10-26T02:52:39.558Z,101264.59
2022-10-26T02:55:14.816Z,101244.16
2022-10-26T02:57:45.009Z,101258.66
2022-10-26T03:00:15.148Z,101242.06
2022-10-26T03:02:47.572Z,101256.84
2022-10-26T03:05:20.432Z,101284.44
2022-10-26T03:07:46.857Z,101262.31
2022-10-26T03:10:13.283Z,101253.63
2022-10-26T03:12:39.673Z,101279.66
2022-10-26T03:15:06.567Z,101243.88
2022-10-26T03:17:33.003Z,101245.00
2022-10-26T03:19:59.536Z,101252.59
2022-10-26T03:22:26.015Z,101235.00
2022-10-26T03:24:52.468Z,101267.13
2022-10-26T03:27:18.918Z,101246.25
2022-10-26T03:29:45.437Z,101262.53
2022-10-26T03:32:11.995Z,101265.72
2022-10-26T03:34:38.483Z,101212.00
2022-10-26T03:37:05.112Z,101267.25
2022-10-26T03:39:31.629Z,101249.25
2022-10-26T03:41:58.219Z,101266.97
2022-10-26T03:44:24.630Z,101267.13
2022-10-26T03:46:51.104Z,101218.53
2022-10-26T03:49:17.561Z,101261.00
2022-10-26T03:51:43.954Z,101255.09
2022-10-26T03:54:10.360Z,101252.91
2022-10-26T03:56:36.797Z,101221.94
2022-10-26T03:59:03.242Z,101252.22
2022-10-26T04:01:29.720Z,101264.28
2022-10-26T04:03:56.233Z,101270.06
2022-10-26T04:06:22.744Z,101264.16
2022-10-26T04:08:49.211Z,101261.13
2022-10-26T04:11:15.668Z,101265.28
2022-10-26T04:13:42.093Z,101285.78
2022-10-26T04:16:08.593Z,101267.88
2022-10-26T04:18:38.195Z,101265.38
2022-10-26T04:21:07.300Z,101238.00
2022-10-26T04:23:34.060Z,101229.81
2022-10-26T04:26:00.499Z,101284.84
2022-10-26T04:28:26.912Z,101270.53
2022-10-26T04:30:53.317Z,101267.47
2022-10-26T04:33:19.749Z,101269.75
2022-10-26T04:35:46.393Z,101262.50
2022-10-26T04:38:12.734Z,101290.78
2022-10-26T04:40:39.163Z,101261.63
2022-10-26T04:43:05.670Z,101266.81
2022-10-26T04:45:32.243Z,101251.22
2022-10-26T04:48:03.704Z,101270.72
2022-10-26T04:50:30.458Z,101267.34
2022-10-26T04:52:57.706Z,101284.19
2022-10-26T04:55:24.225Z,101248.59
2022-10-26T04:57:50.890Z,101254.63
2022-10-26T05:00:18.110Z,101261.88
2022-10-26T05:02:49.588Z,101285.72
2022-10-26T06:49:11.323Z,101332.88
2022-10-26T06:51:50.294Z,101278.28
2022-10-26T06:54:37.028Z,101302.72
2022-10-26T06:57:11.710Z,101282.13
2022-10-26T06:59:47.688Z,101324.94
2022-10-26T07:19:55.804Z,101302.88
2022-10-26T07:23:01.228Z,101293.16
2022-10-26T07:33:35.874Z,101341.66
2022-10-26T07:36:11.058Z,101290.97
2022-10-26T07:50:39.999Z,101332.75
2022-10-26T07:53:13.261Z,101280.50
2022-10-26T07:59:49.510Z,101330.72
2022-10-26T08:53:36.314Z,101330.41
2022-10-26T08:56:43.918Z,101340.38
2022-10-26T08:59:29.382Z,101291.81
2022-10-26T09:01:56.101Z,101317.81
2022-10-26T09:04:25.867Z,101332.84
2022-10-26T09:06:58.471Z,101332.94
2022-10-26T09:09:54.734Z,101291.75
2022-10-26T09:12:48.485Z,101330.38
2022-10-26T09:15:45.703Z,101338.81
2022-10-26T09:18:37.523Z,101337.56
2022-10-26T09:21:36.467Z,101339.25
2022-10-26T09:24:28.276Z,101328.75
2022-10-26T09:26:59.370Z,101324.25
2022-10-26T09:29:44.933Z,101293.94
2022-10-26T10:15:46.099Z,101359.63
2022-10-26T10:53:33.615Z,101305.34
2022-10-26T11:15:07.639Z,101327.31
2022-10-26T11:18:02.043Z,101333.19
2022-10-26T11:20:31.392Z,101316.63
2022-10-26T11:27:08.272Z,101315.31
2022-10-26T11:29:51.333Z,101308.16
2022-10-26T11:43:43.460Z,101324.56
2022-10-26T11:46:25.860Z,101290.38
2022-10-26T11:49:53.271Z,101303.47
2022-10-26T11:57:29.810Z,101316.19
2022-10-26T12:07:31.624Z,101265.09
2022-10-26T12:10:00.584Z,101271.78
2022-10-26T12:12:44.509Z,101302.53
2022-10-26T12:16:04.551Z,101312.06
2022-10-26T12:22:44.393Z,101307.78
2022-10-26T12:25:15.110Z,101286.34
2022-10-26T12:30:47.150Z,101298.47
2022-10-26T12:34:03.327Z,101248.53
2022-10-26T12:37:05.287Z,101299.81
2022-10-26T12:39:50.139Z,101262.16
2022-10-26T12:42:16.740Z,101296.25
2022-10-26T12:45:39.892Z,101254.28
2022-10-26T12:48:39.045Z,101260.47
2022-10-26T12:51:27.482Z,101298.16
2022-10-26T14:03:23.368Z,101273.97
2022-10-26T14:12:51.792Z,101314.09
2022-10-26T14:16:00.839Z,101308.06
2022-10-26T14:19:01.492Z,101301.44
2022-10-26T14:21:31.335Z,101267.53
2022-10-26T14:40:20.270Z,101324.59
2022-10-26T15:06:06.325Z,101325.38
2022-10-26T15:49:47.511Z,101332.44
2022-10-26T15:59:42.776Z,101359.63
2022-10-26T16:02:19.675Z,101348.22
2022-10-26T16:04:55.062Z,101339.66
2022-10-26T16:08:43.014Z,101336.78
2022-10-26T16:11:35.130Z,101353.88
2022-10-26T16:14:21.860Z,101378.59
2022-10-26T16:16:54.743Z,101364.19
2022-10-26T16:38:14.666Z,101347.63
2022-10-26T16:40:54.281Z,101368.81
2022-10-26T16:43:26.765Z,101352.28
2022-10-26T16:46:01.983Z,101354.41
2022-10-26T17:01:18.799Z,101408.50
2022-10-26T17:03:23.935Z,101371.72
2022-10-26T17:06:08.719Z,101395.56
2022-10-26T21:21:06.631Z,101616.13
2022-10-26T21:23:35.756Z,101634.88
2022-10-26T21:26:14.454Z,101617.00
2022-10-26T21:28:45.905Z,101570.53
2022-10-26T21:31:16.808Z,101615.41
2022-10-26T21:33:45.658Z,101591.28
2022-10-26T21:36:15.237Z,101636.56
2022-10-26T21:38:44.065Z,101621.47
2022-10-26T21:41:19.031Z,101661.22
2022-10-26T21:43:49.055Z,101671.06
2022-10-26T21:46:17.078Z,101624.84
2022-10-26T21:48:43.854Z,101625.81
2022-10-26T21:51:17.043Z,101676.78
2022-10-26T21:53:43.738Z,101662.97
2022-10-26T21:56:19.139Z,101679.56
2022-10-26T21:58:46.387Z,101665.75
2022-10-26T22:01:17.894Z,101680.41
2022-10-26T22:03:49.356Z,101678.78
2022-10-26T22:08:47.611Z,101646.34
2022-10-26T22:11:25.016Z,101664.09
2022-10-26T22:13:53.072Z,101677.47
2022-10-26T22:16:25.705Z,101626.81
2022-10-26T22:18:54.290Z,101633.06
2022-10-26T22:21:22.374Z,101657.03
2022-10-26T22:23:49.045Z,101639.22
2022-10-26T22:26:20.530Z,101660.00
2022-10-26T22:28:50.039Z,101659.88
2022-10-26T22:31:19.300Z,101638.75
2022-10-26T22:33:46.287Z,101642.09
2022-10-26T22:36:13.966Z,101681.47
2022-10-26T22:38:41.319Z,101650.19
2022-10-26T22:41:08.659Z,101668.31
2022-10-26T22:43:35.838Z,101672.50
2022-10-26T22:46:07.628Z,101669.19
2022-10-26T22:48:34.995Z,101681.38
2022-10-26T22:51:09.640Z,101679.03
2022-10-26T22:53:36.803Z,101687.38
2022-10-26T22:56:05.736Z,101689.22
2022-10-26T22:58:44.785Z,101681.38
2022-10-26T23:01:19.921Z,101663.53
2022-10-26T23:03:47.003Z,101661.84
2022-10-26T23:06:16.891Z,101655.19
2022-10-26T23:08:44.465Z,101687.44
2022-10-26T23:11:14.367Z,101651.78
2022-10-26T23:13:41.082Z,101697.63
2022-10-26T23:16:10.473Z,101692.06
2022-10-26T23:18:37.421Z,101655.28
2022-10-26T23:21:08.773Z,101714.50
2022-10-26T23:23:36.431Z,101665.38
2022-10-26T23:26:08.938Z,101692.94
2022-10-26T23:28:36.373Z,101706.28
2022-10-26T23:31:03.201Z,101679.94
2022-10-26T23:33:29.728Z,101730.06
2022-10-26T23:35:57.428Z,101713.88
2022-10-26T23:38:24.808Z,101669.66
2022-10-26T23:40:57.956Z,101722.84
2022-10-26T23:43:25.314Z,101706.88
2022-10-26T23:45:52.111Z,101721.69
2022-10-26T23:48:19.407Z,101736.66
2022-10-26T23:50:48.437Z,101712.66
2022-10-26T23:53:15.950Z,101732.78
2022-10-26T23:55:46.896Z,101709.94
2022-10-26T23:58:14.702Z,101709.94
